sensor_id;sensor_type;location;lat;lon;timestamp;P1;durP1;ratioP1;P2;durP2;ratioP2
9445;SDS011;4761;49.490;10.908;2023-11-21T00:00:15;1.17;;;0.70;;
9445;SDS011;4761;49.490;10.908;2023-11-21T00:02:41;0.80;;;0.60;;
9445;SDS011;4761;49.490;10.908;2023-11-21T00:05:08;1.10;;;0.67;;
9445;SDS011;4761;49.490;10.908;2023-11-21T00:07:35;2.20;;;0.70;;
9445;SDS011;4761;49.490;10.908;2023-11-21T00:10:01;0.80;;;0.60;;
9445;SDS011;4761;49.490;10.908;2023-11-21T00:12:27;1.03;;;0.60;;
9445;SDS011;4761;49.490;10.908;2023-11-21T00:14:54;0.77;;;0.50;;
9445;SDS011;4761;49.490;10.908;2023-11-21T00:17:20;1.00;;;0.70;;
9445;SDS011;4761;49.490;10.908;2023-11-21T00:19:45;1.17;;;0.70;;
9445;SDS011;4761;49.490;10.908;2023-11-21T00:22:11;0.80;;;0.67;;
9445;SDS011;4761;49.490;10.908;2023-11-21T00:24:36;1.40;;;0.70;;
9445;SDS011;4761;49.490;10.908;2023-11-21T00:27:02;1.17;;;0.60;;
9445;SDS011;4761;49.490;10.908;2023-11-21T00:29:27;1.10;;;0.60;;
9445;SDS011;4761;49.490;10.908;2023-11-21T00:31:53;0.90;;;0.67;;
9445;SDS011;4761;49.490;10.908;2023-11-21T00:34:19;2.73;;;0.70;;
9445;SDS011;4761;49.490;10.908;2023-11-21T00:36:45;1.07;;;0.67;;
9445;SDS011;4761;49.490;10.908;2023-11-21T00:39:10;0.77;;;0.57;;
9445;SDS011;4761;49.490;10.908;2023-11-21T00:41:36;0.97;;;0.60;;
9445;SDS011;4761;49.490;10.908;2023-11-21T00:44:02;0.73;;;0.60;;
9445;SDS011;4761;49.490;10.908;2023-11-21T00:46:28;0.87;;;0.50;;
9445;SDS011;4761;49.490;10.908;2023-11-21T00:48:54;0.70;;;0.60;;
9445;SDS011;4761;49.490;10.908;2023-11-21T00:51:20;0.67;;;0.53;;
9445;SDS011;4761;49.490;10.908;2023-11-21T00:53:47;0.60;;;0.50;;
9445;SDS011;4761;49.490;10.908;2023-11-21T00:56:13;0.63;;;0.60;;
9445;SDS011;4761;49.490;10.908;2023-11-21T00:58:39;0.80;;;0.60;;
9445;SDS011;4761;49.490;10.908;2023-11-21T01:01:08;0.93;;;0.50;;
9445;SDS011;4761;49.490;10.908;2023-11-21T01:03:34;0.80;;;0.50;;
9445;SDS011;4761;49.490;10.908;2023-11-21T01:06:00;0.43;;;0.43;;
9445;SDS011;4761;49.490;10.908;2023-11-21T01:08:25;0.83;;;0.50;;
9445;SDS011;4761;49.490;10.908;2023-11-21T01:10:51;0.50;;;0.50;;
9445;SDS011;4761;49.490;10.908;2023-11-21T01:13:16;0.67;;;0.60;;
9445;SDS011;4761;49.490;10.908;2023-11-21T01:15:42;0.70;;;0.60;;
9445;SDS011;4761;49.490;10.908;2023-11-21T01:18:07;0.60;;;0.60;;
9445;SDS011;4761;49.490;10.908;2023-11-21T01:20:36;0.50;;;0.50;;
9445;SDS011;4761;49.490;10.908;2023-11-21T01:23:01;2.07;;;0.80;;
9445;SDS011;4761;49.490;10.908;2023-11-21T01:25:27;0.87;;;0.70;;
9445;SDS011;4761;49.490;10.908;2023-11-21T01:27:52;1.23;;;0.60;;
9445;SDS011;4761;49.490;10.908;2023-11-21T01:30:18;0.70;;;0.57;;
9445;SDS011;4761;49.490;10.908;2023-11-21T01:32:43;0.63;;;0.50;;
9445;SDS011;4761;49.490;10.908;2023-11-21T01:35:09;1.20;;;0.63;;
9445;SDS011;4761;49.490;10.908;2023-11-21T01:37:35;0.97;;;0.60;;
9445;SDS011;4761;49.490;10.908;2023-11-21T01:40:04;1.20;;;0.70;;
9445;SDS011;4761;49.490;10.908;2023-11-21T01:42:34;1.37;;;0.60;;
9445;SDS011;4761;49.490;10.908;2023-11-21T01:44:59;1.10;;;0.60;;
9445;SDS011;4761;49.490;10.908;2023-11-21T01:47:31;1.40;;;0.73;;
9445;SDS011;4761;49.490;10.908;2023-11-21T01:49:57;1.13;;;0.63;;
9445;SDS011;4761;49.490;10.908;2023-11-21T01:52:23;1.10;;;0.87;;
9445;SDS011;4761;49.490;10.908;2023-11-21T01:54:49;1.53;;;0.60;;
9445;SDS011;4761;49.490;10.908;2023-11-21T01:57:15;0.80;;;0.60;;
9445;SDS011;4761;49.490;10.908;2023-11-21T01:59:41;1.80;;;0.80;;
9445;SDS011;4761;49.490;10.908;2023-11-21T02:02:07;0.90;;;0.60;;
9445;SDS011;4761;49.490;10.908;2023-11-21T02:04:34;0.60;;;0.50;;
9445;SDS011;4761;49.490;10.908;2023-11-21T02:07:01;1.00;;;0.80;;
9445;SDS011;4761;49.490;10.908;2023-11-21T02:09:30;1.93;;;0.93;;
9445;SDS011;4761;49.490;10.908;2023-11-21T02:11:58;1.07;;;0.60;;
9445;SDS011;4761;49.490;10.908;2023-11-21T02:14:24;1.40;;;0.90;;
9445;SDS011;4761;49.490;10.908;2023-11-21T02:16:51;1.60;;;0.70;;
9445;SDS011;4761;49.490;10.908;2023-11-21T02:19:17;0.53;;;0.53;;
9445;SDS011;4761;49.490;10.908;2023-11-21T02:21:45;0.83;;;0.70;;
9445;SDS011;4761;49.490;10.908;2023-11-21T02:24:13;0.63;;;0.63;;
9445;SDS011;4761;49.490;10.908;2023-11-21T02:26:38;1.23;;;0.80;;
9445;SDS011;4761;49.490;10.908;2023-11-21T02:29:04;1.63;;;0.70;;
9445;SDS011;4761;49.490;10.908;2023-11-21T02:31:29;0.60;;;0.50;;
9445;SDS011;4761;49.490;10.908;2023-11-21T02:33:57;1.43;;;0.60;;
9445;SDS011;4761;49.490;10.908;2023-11-21T02:36:23;1.60;;;0.57;;
9445;SDS011;4761;49.490;10.908;2023-11-21T02:38:48;1.13;;;0.70;;
9445;SDS011;4761;49.490;10.908;2023-11-21T02:41:14;0.63;;;0.50;;
9445;SDS011;4761;49.490;10.908;2023-11-21T02:43:39;0.50;;;0.50;;
9445;SDS011;4761;49.490;10.908;2023-11-21T02:46:05;0.67;;;0.60;;
9445;SDS011;4761;49.490;10.908;2023-11-21T02:48:30;0.87;;;0.70;;
9445;SDS011;4761;49.490;10.908;2023-11-21T02:50:56;0.80;;;0.57;;
9445;SDS011;4761;49.490;10.908;2023-11-21T02:53:21;0.57;;;0.57;;
9445;SDS011;4761;49.490;10.908;2023-11-21T02:55:49;1.00;;;0.70;;
9445;SDS011;4761;49.490;10.908;2023-11-21T02:58:14;1.50;;;0.87;;
9445;SDS011;4761;49.490;10.908;2023-11-21T03:00:40;1.37;;;0.50;;
9445;SDS011;4761;49.490;10.908;2023-11-21T03:03:06;0.50;;;0.50;;
9445;SDS011;4761;49.490;10.908;2023-11-21T03:05:33;1.13;;;0.67;;
9445;SDS011;4761;49.490;10.908;2023-11-21T03:08:00;0.87;;;0.63;;
9445;SDS011;4761;49.490;10.908;2023-11-21T03:10:26;1.37;;;0.60;;
9445;SDS011;4761;49.490;10.908;2023-11-21T03:12:52;1.13;;;0.70;;
9445;SDS011;4761;49.490;10.908;2023-11-21T03:15:17;1.50;;;0.83;;
9445;SDS011;4761;49.490;10.908;2023-11-21T03:17:43;0.97;;;0.70;;
9445;SDS011;4761;49.490;10.908;2023-11-21T03:20:09;0.70;;;0.60;;
9445;SDS011;4761;49.490;10.908;2023-11-21T03:22:36;0.87;;;0.77;;
9445;SDS011;4761;49.490;10.908;2023-11-21T03:25:02;0.70;;;0.60;;
9445;SDS011;4761;49.490;10.908;2023-11-21T03:27:28;0.53;;;0.50;;
9445;SDS011;4761;49.490;10.908;2023-11-21T03:29:53;1.00;;;0.73;;
9445;SDS011;4761;49.490;10.908;2023-11-21T03:32:19;1.20;;;0.83;;
9445;SDS011;4761;49.490;10.908;2023-11-21T03:34:57;0.60;;;0.60;;
9445;SDS011;4761;49.490;10.908;2023-11-21T03:37:23;1.47;;;0.70;;
9445;SDS011;4761;49.490;10.908;2023-11-21T03:39:50;1.20;;;0.90;;
9445;SDS011;4761;49.490;10.908;2023-11-21T03:42:15;0.73;;;0.70;;
9445;SDS011;4761;49.490;10.908;2023-11-21T03:44:41;0.87;;;0.50;;
9445;SDS011;4761;49.490;10.908;2023-11-21T03:47:07;0.60;;;0.60;;
9445;SDS011;4761;49.490;10.908;2023-11-21T03:49:32;1.17;;;0.70;;
9445;SDS011;4761;49.490;10.908;2023-11-21T03:51:58;1.17;;;0.70;;
9445;SDS011;4761;49.490;10.908;2023-11-21T03:54:24;0.87;;;0.60;;
9445;SDS011;4761;49.490;10.908;2023-11-21T03:56:49;1.00;;;0.83;;
9445;SDS011;4761;49.490;10.908;2023-11-21T03:59:15;1.53;;;0.73;;
9445;SDS011;4761;49.490;10.908;2023-11-21T04:01:40;0.80;;;0.70;;
9445;SDS011;4761;49.490;10.908;2023-11-21T04:04:06;0.60;;;0.60;;
9445;SDS011;4761;49.490;10.908;2023-11-21T04:06:31;1.20;;;0.80;;
9445;SDS011;4761;49.490;10.908;2023-11-21T04:08:58;1.67;;;0.77;;
9445;SDS011;4761;49.490;10.908;2023-11-21T04:11:23;1.70;;;1.00;;
9445;SDS011;4761;49.490;10.908;2023-11-21T04:13:49;1.10;;;0.60;;
9445;SDS011;4761;49.490;10.908;2023-11-21T04:16:14;0.83;;;0.70;;
9445;SDS011;4761;49.490;10.908;2023-11-21T04:18:40;1.13;;;0.63;;
9445;SDS011;4761;49.490;10.908;2023-11-21T04:21:05;0.97;;;0.70;;
9445;SDS011;4761;49.490;10.908;2023-11-21T04:23:32;0.67;;;0.60;;
9445;SDS011;4761;49.490;10.908;2023-11-21T04:25:58;0.70;;;0.63;;
9445;SDS011;4761;49.490;10.908;2023-11-21T04:28:24;2.57;;;0.77;;
9445;SDS011;4761;49.490;10.908;2023-11-21T04:30:49;1.20;;;0.70;;
9445;SDS011;4761;49.490;10.908;2023-11-21T04:33:15;2.00;;;0.80;;
9445;SDS011;4761;49.490;10.908;2023-11-21T04:35:41;0.80;;;0.70;;
9445;SDS011;4761;49.490;10.908;2023-11-21T04:38:07;0.83;;;0.70;;
9445;SDS011;4761;49.490;10.908;2023-11-21T04:40:32;1.23;;;0.80;;
9445;SDS011;4761;49.490;10.908;2023-11-21T04:42:58;0.87;;;0.70;;
9445;SDS011;4761;49.490;10.908;2023-11-21T04:45:23;0.67;;;0.60;;
9445;SDS011;4761;49.490;10.908;2023-11-21T04:47:49;2.10;;;1.00;;
9445;SDS011;4761;49.490;10.908;2023-11-21T04:50:14;1.60;;;0.97;;
9445;SDS011;4761;49.490;10.908;2023-11-21T04:52:40;0.80;;;0.70;;
9445;SDS011;4761;49.490;10.908;2023-11-21T04:55:05;0.73;;;0.73;;
9445;SDS011;4761;49.490;10.908;2023-11-21T04:57:34;1.13;;;0.90;;
9445;SDS011;4761;49.490;10.908;2023-11-21T05:00:00;2.67;;;1.00;;
9445;SDS011;4761;49.490;10.908;2023-11-21T05:02:26;1.30;;;0.80;;
9445;SDS011;4761;49.490;10.908;2023-11-21T05:04:52;1.47;;;0.80;;
9445;SDS011;4761;49.490;10.908;2023-11-21T05:07:18;2.67;;;1.10;;
9445;SDS011;4761;49.490;10.908;2023-11-21T05:09:43;0.87;;;0.80;;
9445;SDS011;4761;49.490;10.908;2023-11-21T05:12:10;1.30;;;1.00;;
9445;SDS011;4761;49.490;10.908;2023-11-21T05:14:36;1.07;;;0.90;;
9445;SDS011;4761;49.490;10.908;2023-11-21T05:17:02;1.43;;;0.80;;
9445;SDS011;4761;49.490;10.908;2023-11-21T05:19:29;1.70;;;1.10;;
9445;SDS011;4761;49.490;10.908;2023-11-21T05:21:55;1.23;;;1.00;;
9445;SDS011;4761;49.490;10.908;2023-11-21T05:24:20;1.40;;;1.03;;
9445;SDS011;4761;49.490;10.908;2023-11-21T05:26:46;1.10;;;0.80;;
9445;SDS011;4761;49.490;10.908;2023-11-21T05:29:11;1.37;;;1.20;;
9445;SDS011;4761;49.490;10.908;2023-11-21T05:31:37;2.33;;;1.10;;
9445;SDS011;4761;49.490;10.908;2023-11-21T05:34:03;1.33;;;1.07;;
9445;SDS011;4761;49.490;10.908;2023-11-21T05:36:30;0.80;;;0.80;;
9445;SDS011;4761;49.490;10.908;2023-11-21T05:38:55;1.20;;;0.80;;
9445;SDS011;4761;49.490;10.908;2023-11-21T05:41:21;0.90;;;0.90;;
9445;SDS011;4761;49.490;10.908;2023-11-21T05:43:46;1.17;;;0.93;;
9445;SDS011;4761;49.490;10.908;2023-11-21T05:46:12;1.00;;;0.90;;
9445;SDS011;4761;49.490;10.908;2023-11-21T05:48:38;1.57;;;1.00;;
9445;SDS011;4761;49.490;10.908;2023-11-21T05:51:07;1.30;;;0.80;;
9445;SDS011;4761;49.490;10.908;2023-11-21T05:53:33;1.07;;;0.90;;
9445;SDS011;4761;49.490;10.908;2023-11-21T05:55:59;1.33;;;0.93;;
9445;SDS011;4761;49.490;10.908;2023-11-21T05:58:25;1.83;;;1.10;;
9445;SDS011;4761;49.490;10.908;2023-11-21T06:00:50;1.53;;;0.90;;
9445;SDS011;4761;49.490;10.908;2023-11-21T06:03:16;1.80;;;0.90;;
9445;SDS011;4761;49.490;10.908;2023-11-21T06:05:42;1.13;;;0.90;;
9445;SDS011;4761;49.490;10.908;2023-11-21T06:08:08;1.63;;;1.20;;
9445;SDS011;4761;49.490;10.908;2023-11-21T06:10:34;1.60;;;1.10;;
9445;SDS011;4761;49.490;10.908;2023-11-21T06:12:59;1.87;;;1.10;;
9445;SDS011;4761;49.490;10.908;2023-11-21T06:15:25;1.20;;;1.03;;
9445;SDS011;4761;49.490;10.908;2023-11-21T06:17:50;1.00;;;0.90;;
9445;SDS011;4761;49.490;10.908;2023-11-21T06:20:19;1.20;;;1.00;;
9445;SDS011;4761;49.490;10.908;2023-11-21T06:22:46;1.33;;;0.80;;
9445;SDS011;4761;49.490;10.908;2023-11-21T06:25:13;1.33;;;1.00;;
9445;SDS011;4761;49.490;10.908;2023-11-21T06:27:43;2.63;;;1.00;;
9445;SDS011;4761;49.490;10.908;2023-11-21T06:30:09;1.23;;;1.07;;
9445;SDS011;4761;49.490;10.908;2023-11-21T06:32:36;1.70;;;1.30;;
9445;SDS011;4761;49.490;10.908;2023-11-21T06:35:03;2.77;;;1.53;;
9445;SDS011;4761;49.490;10.908;2023-11-21T06:37:29;1.43;;;1.00;;
9445;SDS011;4761;49.490;10.908;2023-11-21T06:39:55;1.33;;;1.10;;
9445;SDS011;4761;49.490;10.908;2023-11-21T06:42:23;3.07;;;1.10;;
9445;SDS011;4761;49.490;10.908;2023-11-21T06:44:49;2.90;;;1.10;;
9445;SDS011;4761;49.490;10.908;2023-11-21T06:47:16;3.03;;;1.30;;
9445;SDS011;4761;49.490;10.908;2023-11-21T06:49:42;1.23;;;1.00;;
9445;SDS011;4761;49.490;10.908;2023-11-21T06:52:08;2.90;;;0.90;;
9445;SDS011;4761;49.490;10.908;2023-11-21T06:54:34;3.97;;;1.20;;
9445;SDS011;4761;49.490;10.908;2023-11-21T06:57:00;2.17;;;1.30;;
9445;SDS011;4761;49.490;10.908;2023-11-21T06:59:28;1.83;;;1.03;;
9445;SDS011;4761;49.490;10.908;2023-11-21T07:01:53;1.43;;;1.10;;
9445;SDS011;4761;49.490;10.908;2023-11-21T07:04:19;1.43;;;1.10;;
9445;SDS011;4761;49.490;10.908;2023-11-21T07:06:45;2.33;;;1.30;;
9445;SDS011;4761;49.490;10.908;2023-11-21T07:09:10;2.87;;;1.30;;
9445;SDS011;4761;49.490;10.908;2023-11-21T07:11:36;1.20;;;1.10;;
9445;SDS011;4761;49.490;10.908;2023-11-21T07:14:03;1.40;;;1.10;;
9445;SDS011;4761;49.490;10.908;2023-11-21T07:16:33;1.33;;;1.13;;
9445;SDS011;4761;49.490;10.908;2023-11-21T07:19:03;1.90;;;1.10;;
9445;SDS011;4761;49.490;10.908;2023-11-21T07:21:31;2.03;;;1.17;;
9445;SDS011;4761;49.490;10.908;2023-11-21T07:24:00;1.43;;;1.23;;
9445;SDS011;4761;49.490;10.908;2023-11-21T07:26:27;1.70;;;1.10;;
9445;SDS011;4761;49.490;10.908;2023-11-21T07:28:53;1.90;;;1.30;;
9445;SDS011;4761;49.490;10.908;2023-11-21T07:31:19;2.30;;;1.30;;
9445;SDS011;4761;49.490;10.908;2023-11-21T07:33:45;2.20;;;1.43;;
9445;SDS011;4761;49.490;10.908;2023-11-21T07:36:14;1.40;;;1.10;;
9445;SDS011;4761;49.490;10.908;2023-11-21T07:38:41;2.97;;;1.43;;
9445;SDS011;4761;49.490;10.908;2023-11-21T07:41:07;1.83;;;1.17;;
9445;SDS011;4761;49.490;10.908;2023-11-21T07:43:34;1.57;;;1.40;;
9445;SDS011;4761;49.490;10.908;2023-11-21T07:46:01;2.30;;;1.30;;
9445;SDS011;4761;49.490;10.908;2023-11-21T07:48:28;1.60;;;1.27;;
9445;SDS011;4761;49.490;10.908;2023-11-21T07:50:57;2.13;;;1.47;;
9445;SDS011;4761;49.490;10.908;2023-11-21T07:53:26;1.40;;;1.23;;
9445;SDS011;4761;49.490;10.908;2023-11-21T07:55:55;1.80;;;1.40;;
9445;SDS011;4761;49.490;10.908;2023-11-21T07:58:23;1.43;;;1.30;;
9445;SDS011;4761;49.490;10.908;2023-11-21T08:00:49;2.53;;;1.13;;
9445;SDS011;4761;49.490;10.908;2023-11-21T08:03:15;1.80;;;1.30;;
9445;SDS011;4761;49.490;10.908;2023-11-21T08:05:41;1.90;;;1.40;;
9445;SDS011;4761;49.490;10.908;2023-11-21T08:08:07;1.30;;;1.17;;
9445;SDS011;4761;49.490;10.908;2023-11-21T08:10:33;1.53;;;1.43;;
9445;SDS011;4761;49.490;10.908;2023-11-21T08:13:00;2.37;;;1.60;;
9445;SDS011;4761;49.490;10.908;2023-11-21T08:15:26;2.80;;;1.77;;
9445;SDS011;4761;49.490;10.908;2023-11-21T08:17:51;3.10;;;1.77;;
9445;SDS011;4761;49.490;10.908;2023-11-21T08:20:17;1.40;;;1.27;;
9445;SDS011;4761;49.490;10.908;2023-11-21T08:22:43;1.67;;;1.20;;
9445;SDS011;4761;49.490;10.908;2023-11-21T08:25:09;1.87;;;1.47;;
9445;SDS011;4761;49.490;10.908;2023-11-21T08:27:35;3.17;;;1.60;;
9445;SDS011;4761;49.490;10.908;2023-11-21T08:30:01;1.57;;;1.20;;
9445;SDS011;4761;49.490;10.908;2023-11-21T08:32:28;2.07;;;1.30;;
9445;SDS011;4761;49.490;10.908;2023-11-21T08:34:55;2.17;;;1.40;;
9445;SDS011;4761;49.490;10.908;2023-11-21T08:37:21;1.53;;;1.40;;
9445;SDS011;4761;49.490;10.908;2023-11-21T08:39:47;2.57;;;1.47;;
9445;SDS011;4761;49.490;10.908;2023-11-21T08:42:17;1.60;;;1.30;;
9445;SDS011;4761;49.490;10.908;2023-11-21T08:44:43;1.83;;;1.17;;
9445;SDS011;4761;49.490;10.908;2023-11-21T08:47:09;1.57;;;1.37;;
9445;SDS011;4761;49.490;10.908;2023-11-21T08:49:34;2.87;;;1.53;;
9445;SDS011;4761;49.490;10.908;2023-11-21T08:52:00;1.90;;;1.30;;
9445;SDS011;4761;49.490;10.908;2023-11-21T08:54:26;1.83;;;1.30;;
9445;SDS011;4761;49.490;10.908;2023-11-21T08:56:52;1.40;;;1.30;;
9445;SDS011;4761;49.490;10.908;2023-11-21T08:59:18;1.57;;;1.17;;
9445;SDS011;4761;49.490;10.908;2023-11-21T09:01:45;1.30;;;1.20;;
9445;SDS011;4761;49.490;10.908;2023-11-21T09:04:11;2.10;;;1.30;;
9445;SDS011;4761;49.490;10.908;2023-11-21T09:06:37;1.33;;;1.13;;
9445;SDS011;4761;49.490;10.908;2023-11-21T09:09:03;1.80;;;1.23;;
9445;SDS011;4761;49.490;10.908;2023-11-21T09:11:30;1.10;;;1.00;;
9445;SDS011;4761;49.490;10.908;2023-11-21T09:13:58;2.53;;;1.20;;
9445;SDS011;4761;49.490;10.908;2023-11-21T09:16:24;1.83;;;1.20;;
9445;SDS011;4761;49.490;10.908;2023-11-21T09:18:50;3.00;;;1.37;;
9445;SDS011;4761;49.490;10.908;2023-11-21T09:21:15;1.37;;;1.20;;
9445;SDS011;4761;49.490;10.908;2023-11-21T09:23:44;1.43;;;1.00;;
9445;SDS011;4761;49.490;10.908;2023-11-21T09:26:09;1.50;;;1.20;;
9445;SDS011;4761;49.490;10.908;2023-11-21T09:28:35;1.20;;;1.10;;
9445;SDS011;4761;49.490;10.908;2023-11-21T09:31:02;1.47;;;1.13;;
9445;SDS011;4761;49.490;10.908;2023-11-21T09:33:33;1.20;;;1.10;;
9445;SDS011;4761;49.490;10.908;2023-11-21T09:35:59;2.50;;;1.30;;
9445;SDS011;4761;49.490;10.908;2023-11-21T09:38:24;1.47;;;1.10;;
9445;SDS011;4761;49.490;10.908;2023-11-21T09:40:50;1.40;;;1.17;;
9445;SDS011;4761;49.490;10.908;2023-11-21T09:43:18;1.53;;;1.10;;
9445;SDS011;4761;49.490;10.908;2023-11-21T09:45:47;1.00;;;0.90;;
9445;SDS011;4761;49.490;10.908;2023-11-21T09:48:18;1.33;;;1.23;;
9445;SDS011;4761;49.490;10.908;2023-11-21T09:50:45;1.87;;;1.40;;
9445;SDS011;4761;49.490;10.908;2023-11-21T09:53:13;1.70;;;1.20;;
9445;SDS011;4761;49.490;10.908;2023-11-21T09:55:49;0.97;;;0.93;;
9445;SDS011;4761;49.490;10.908;2023-11-21T09:58:17;2.10;;;1.20;;
9445;SDS011;4761;49.490;10.908;2023-11-21T10:00:44;1.50;;;1.10;;
9445;SDS011;4761;49.490;10.908;2023-11-21T10:03:14;1.07;;;0.97;;
9445;SDS011;4761;49.490;10.908;2023-11-21T10:05:44;2.20;;;1.20;;
9445;SDS011;4761;49.490;10.908;2023-11-21T10:08:15;1.53;;;1.43;;
9445;SDS011;4761;49.490;10.908;2023-11-21T10:10:44;2.50;;;1.70;;
9445;SDS011;4761;49.490;10.908;2023-11-21T10:13:12;1.60;;;1.50;;
9445;SDS011;4761;49.490;10.908;2023-11-21T10:15:41;1.73;;;1.40;;
9445;SDS011;4761;49.490;10.908;2023-11-21T10:18:13;2.07;;;1.23;;
9445;SDS011;4761;49.490;10.908;2023-11-21T10:20:40;1.40;;;1.30;;
9445;SDS011;4761;49.490;10.908;2023-11-21T10:23:06;1.83;;;1.70;;
9445;SDS011;4761;49.490;10.908;2023-11-21T10:25:36;1.30;;;1.20;;
9445;SDS011;4761;49.490;10.908;2023-11-21T10:28:02;2.23;;;1.50;;
9445;SDS011;4761;49.490;10.908;2023-11-21T10:30:37;3.13;;;1.53;;
9445;SDS011;4761;49.490;10.908;2023-11-21T10:33:04;1.63;;;1.50;;
9445;SDS011;4761;49.490;10.908;2023-11-21T10:35:45;1.53;;;1.30;;
9445;SDS011;4761;49.490;10.908;2023-11-21T10:38:13;1.60;;;1.10;;
9445;SDS011;4761;49.490;10.908;2023-11-21T10:40:43;1.50;;;1.30;;
9445;SDS011;4761;49.490;10.908;2023-11-21T10:43:11;1.73;;;1.43;;
9445;SDS011;4761;49.490;10.908;2023-11-21T10:45:40;1.47;;;1.23;;
9445;SDS011;4761;49.490;10.908;2023-11-21T10:48:07;1.77;;;1.20;;
9445;SDS011;4761;49.490;10.908;2023-11-21T10:50:35;1.50;;;1.10;;
9445;SDS011;4761;49.490;10.908;2023-11-21T10:53:02;2.33;;;1.17;;
9445;SDS011;4761;49.490;10.908;2023-11-21T10:55:29;1.30;;;1.20;;
9445;SDS011;4761;49.490;10.908;2023-11-21T10:57:57;1.27;;;1.10;;
9445;SDS011;4761;49.490;10.908;2023-11-21T11:00:24;1.50;;;1.40;;
9445;SDS011;4761;49.490;10.908;2023-11-21T11:02:52;1.43;;;1.10;;
9445;SDS011;4761;49.490;10.908;2023-11-21T11:05:22;1.30;;;1.10;;
9445;SDS011;4761;49.490;10.908;2023-11-21T11:07:53;1.50;;;1.40;;
9445;SDS011;4761;49.490;10.908;2023-11-21T11:10:26;1.07;;;0.93;;
9445;SDS011;4761;49.490;10.908;2023-11-21T11:12:54;1.80;;;1.10;;
9445;SDS011;4761;49.490;10.908;2023-11-21T11:15:20;1.67;;;1.10;;
9445;SDS011;4761;49.490;10.908;2023-11-21T11:17:46;1.60;;;1.20;;
9445;SDS011;4761;49.490;10.908;2023-11-21T11:20:14;1.70;;;1.20;;
9445;SDS011;4761;49.490;10.908;2023-11-21T11:28:04;1.00;;;0.90;;
9445;SDS011;4761;49.490;10.908;2023-11-21T11:33:48;1.23;;;1.10;;
9445;SDS011;4761;49.490;10.908;2023-11-21T11:36:27;1.47;;;1.07;;
9445;SDS011;4761;49.490;10.908;2023-11-21T11:38:54;1.20;;;1.03;;
9445;SDS011;4761;49.490;10.908;2023-11-21T11:41:31;1.17;;;1.07;;
9445;SDS011;4761;49.490;10.908;2023-11-21T11:44:02;1.10;;;0.90;;
9445;SDS011;4761;49.490;10.908;2023-11-21T11:46:44;1.13;;;1.00;;
9445;SDS011;4761;49.490;10.908;2023-11-21T11:49:22;1.37;;;1.27;;
9445;SDS011;4761;49.490;10.908;2023-11-21T11:52:03;1.43;;;0.90;;
9445;SDS011;4761;49.490;10.908;2023-11-21T11:54:54;1.03;;;0.93;;
9445;SDS011;4761;49.490;10.908;2023-11-21T11:57:23;1.43;;;0.90;;
9445;SDS011;4761;49.490;10.908;2023-11-21T12:02:41;1.50;;;0.87;;
9445;SDS011;4761;49.490;10.908;2023-11-21T12:05:11;1.40;;;1.10;;
9445;SDS011;4761;49.490;10.908;2023-11-21T12:07:41;1.10;;;1.00;;
9445;SDS011;4761;49.490;10.908;2023-11-21T12:10:27;2.30;;;1.03;;
9445;SDS011;4761;49.490;10.908;2023-11-21T12:12:57;1.43;;;1.10;;
9445;SDS011;4761;49.490;10.908;2023-11-21T12:15:24;1.67;;;1.17;;
9445;SDS011;4761;49.490;10.908;2023-11-21T12:17:50;1.20;;;1.10;;
9445;SDS011;4761;49.490;10.908;2023-11-21T12:20:21;1.10;;;1.00;;
9445;SDS011;4761;49.490;10.908;2023-11-21T12:22:48;1.93;;;1.03;;
9445;SDS011;4761;49.490;10.908;2023-11-21T12:25:21;1.13;;;0.80;;
9445;SDS011;4761;49.490;10.908;2023-11-21T12:27:49;1.93;;;1.00;;
9445;SDS011;4761;49.490;10.908;2023-11-21T12:30:18;0.83;;;0.83;;
9445;SDS011;4761;49.490;10.908;2023-11-21T12:32:53;1.27;;;1.00;;
9445;SDS011;4761;49.490;10.908;2023-11-21T12:35:21;1.57;;;1.10;;
9445;SDS011;4761;49.490;10.908;2023-11-21T12:37:51;1.60;;;1.07;;
9445;SDS011;4761;49.490;10.908;2023-11-21T12:40:18;1.10;;;1.00;;
9445;SDS011;4761;49.490;10.908;2023-11-21T12:42:45;0.80;;;0.80;;
9445;SDS011;4761;49.490;10.908;2023-11-21T12:45:24;1.03;;;0.93;;
9445;SDS011;4761;49.490;10.908;2023-11-21T12:47:51;2.20;;;1.10;;
9445;SDS011;4761;49.490;10.908;2023-11-21T12:50:20;0.80;;;0.80;;
9445;SDS011;4761;49.490;10.908;2023-11-21T12:52:53;0.90;;;0.90;;
9445;SDS011;4761;49.490;10.908;2023-11-21T12:55:23;1.40;;;1.10;;
9445;SDS011;4761;49.490;10.908;2023-11-21T12:57:52;0.97;;;0.70;;
9445;SDS011;4761;49.490;10.908;2023-11-21T13:00:30;1.30;;;0.87;;
9445;SDS011;4761;49.490;10.908;2023-11-21T13:02:58;1.57;;;1.07;;
9445;SDS011;4761;49.490;10.908;2023-11-21T13:05:28;0.80;;;0.80;;
9445;SDS011;4761;49.490;10.908;2023-11-21T13:07:56;1.03;;;0.93;;
9445;SDS011;4761;49.490;10.908;2023-11-21T13:10:23;1.17;;;0.83;;
9445;SDS011;4761;49.490;10.908;2023-11-21T13:12:56;1.77;;;0.90;;
9445;SDS011;4761;49.490;10.908;2023-11-21T13:15:23;1.27;;;0.93;;
9445;SDS011;4761;49.490;10.908;2023-11-21T13:17:50;1.03;;;0.90;;
9445;SDS011;4761;49.490;10.908;2023-11-21T13:20:16;0.97;;;0.87;;
9445;SDS011;4761;49.490;10.908;2023-11-21T13:23:06;1.67;;;1.10;;
9445;SDS011;4761;49.490;10.908;2023-11-21T13:25:36;1.60;;;1.00;;
9445;SDS011;4761;49.490;10.908;2023-11-21T13:28:04;1.27;;;0.93;;
9445;SDS011;4761;49.490;10.908;2023-11-21T13:30:30;0.90;;;0.80;;
9445;SDS011;4761;49.490;10.908;2023-11-21T13:32:59;1.00;;;0.80;;
9445;SDS011;4761;49.490;10.908;2023-11-21T13:35:29;0.90;;;0.90;;
9445;SDS011;4761;49.490;10.908;2023-11-21T13:37:57;0.83;;;0.83;;
9445;SDS011;4761;49.490;10.908;2023-11-21T13:40:28;1.47;;;1.10;;
9445;SDS011;4761;49.490;10.908;2023-11-21T13:42:54;2.07;;;1.10;;
9445;SDS011;4761;49.490;10.908;2023-11-21T13:45:22;0.90;;;0.90;;
9445;SDS011;4761;49.490;10.908;2023-11-21T13:47:49;1.00;;;0.87;;
9445;SDS011;4761;49.490;10.908;2023-11-21T13:50:22;0.90;;;0.70;;
9445;SDS011;4761;49.490;10.908;2023-11-21T13:52:53;1.23;;;0.90;;
9445;SDS011;4761;49.490;10.908;2023-11-21T13:55:19;1.47;;;0.90;;
9445;SDS011;4761;49.490;10.908;2023-11-21T13:57:46;1.27;;;0.90;;
9445;SDS011;4761;49.490;10.908;2023-11-21T14:00:16;0.90;;;0.90;;
9445;SDS011;4761;49.490;10.908;2023-11-21T14:03:06;1.40;;;0.90;;
9445;SDS011;4761;49.490;10.908;2023-11-21T14:05:41;0.73;;;0.70;;
9445;SDS011;4761;49.490;10.908;2023-11-21T14:08:08;1.00;;;0.70;;
9445;SDS011;4761;49.490;10.908;2023-11-21T14:10:36;1.00;;;0.70;;
9445;SDS011;4761;49.490;10.908;2023-11-21T14:13:08;1.73;;;1.10;;
9445;SDS011;4761;49.490;10.908;2023-11-21T14:15:37;1.17;;;0.97;;
9445;SDS011;4761;49.490;10.908;2023-11-21T14:18:07;1.27;;;0.90;;
9445;SDS011;4761;49.490;10.908;2023-11-21T14:20:35;1.57;;;1.10;;
9445;SDS011;4761;49.490;10.908;2023-11-21T14:23:05;1.00;;;0.70;;
9445;SDS011;4761;49.490;10.908;2023-11-21T14:25:34;0.83;;;0.80;;
9445;SDS011;4761;49.490;10.908;2023-11-21T14:28:02;0.73;;;0.70;;
9445;SDS011;4761;49.490;10.908;2023-11-21T14:30:28;0.83;;;0.83;;
9445;SDS011;4761;49.490;10.908;2023-11-21T14:32:56;1.00;;;0.70;;
9445;SDS011;4761;49.490;10.908;2023-11-21T14:35:23;1.03;;;0.80;;
9445;SDS011;4761;49.490;10.908;2023-11-21T14:37:48;1.63;;;0.90;;
9445;SDS011;4761;49.490;10.908;2023-11-21T14:40:14;0.90;;;0.80;;
9445;SDS011;4761;49.490;10.908;2023-11-21T14:42:41;1.07;;;0.73;;
9445;SDS011;4761;49.490;10.908;2023-11-21T14:45:07;1.13;;;0.80;;
9445;SDS011;4761;49.490;10.908;2023-11-21T14:47:37;0.70;;;0.70;;
9445;SDS011;4761;49.490;10.908;2023-11-21T14:50:03;1.23;;;0.80;;
9445;SDS011;4761;49.490;10.908;2023-11-21T14:52:49;1.33;;;0.90;;
9445;SDS011;4761;49.490;10.908;2023-11-21T14:55:24;0.90;;;0.90;;
9445;SDS011;4761;49.490;10.908;2023-11-21T14:57:57;1.23;;;0.90;;
9445;SDS011;4761;49.490;10.908;2023-11-21T15:00:27;2.03;;;1.03;;
9445;SDS011;4761;49.490;10.908;2023-11-21T15:03:01;1.37;;;0.97;;
9445;SDS011;4761;49.490;10.908;2023-11-21T15:05:28;0.87;;;0.80;;
9445;SDS011;4761;49.490;10.908;2023-11-21T15:07:54;1.13;;;0.90;;
9445;SDS011;4761;49.490;10.908;2023-11-21T15:10:36;0.80;;;0.70;;
9445;SDS011;4761;49.490;10.908;2023-11-21T15:13:11;1.37;;;0.87;;